sensor_id;sensor_type;location;lat;lon;timestamp;P1;durP1;ratioP1;P2;durP2;ratioP2
47429;SDS011;33181;49.246;7.372;2023-05-07T00:01:58;8.20;;;5.90;;
47429;SDS011;33181;49.246;7.372;2023-05-07T00:04:24;8.13;;;5.57;;
47429;SDS011;33181;49.246;7.372;2023-05-07T00:06:50;6.50;;;4.97;;
47429;SDS011;33181;49.246;7.372;2023-05-07T00:09:16;6.33;;;5.03;;
47429;SDS011;33181;49.246;7.372;2023-05-07T00:11:42;7.03;;;4.57;;
47429;SDS011;33181;49.246;7.372;2023-05-07T00:14:07;5.50;;;4.90;;
47429;SDS011;33181;49.246;7.372;2023-05-07T00:16:33;5.83;;;4.83;;
47429;SDS011;33181;49.246;7.372;2023-05-07T00:19:00;8.07;;;5.70;;
47429;SDS011;33181;49.246;7.372;2023-05-07T00:21:26;7.63;;;5.47;;
47429;SDS011;33181;49.246;7.372;2023-05-07T00:23:52;6.50;;;5.23;;
47429;SDS011;33181;49.246;7.372;2023-05-07T00:26:19;7.20;;;5.40;;
47429;SDS011;33181;49.246;7.372;2023-05-07T00:28:45;8.10;;;5.13;;
47429;SDS011;33181;49.246;7.372;2023-05-07T00:31:11;5.60;;;4.93;;
47429;SDS011;33181;49.246;7.372;2023-05-07T00:33:37;6.70;;;4.63;;
47429;SDS011;33181;49.246;7.372;2023-05-07T00:36:04;8.20;;;4.90;;
47429;SDS011;33181;49.246;7.372;2023-05-07T00:38:30;7.73;;;5.00;;
47429;SDS011;33181;49.246;7.372;2023-05-07T00:40:56;6.07;;;4.70;;
47429;SDS011;33181;49.246;7.372;2023-05-07T00:43:21;8.47;;;4.70;;
47429;SDS011;33181;49.246;7.372;2023-05-07T00:45:47;6.13;;;4.53;;
47429;SDS011;33181;49.246;7.372;2023-05-07T00:48:13;6.67;;;4.90;;
47429;SDS011;33181;49.246;7.372;2023-05-07T00:50:41;5.67;;;4.73;;
47429;SDS011;33181;49.246;7.372;2023-05-07T00:53:07;6.80;;;5.07;;
47429;SDS011;33181;49.246;7.372;2023-05-07T00:55:35;6.73;;;5.00;;
47429;SDS011;33181;49.246;7.372;2023-05-07T00:58:02;6.77;;;4.80;;
47429;SDS011;33181;49.246;7.372;2023-05-07T01:00:28;6.77;;;4.90;;
47429;SDS011;33181;49.246;7.372;2023-05-07T01:02:53;6.17;;;4.83;;
47429;SDS011;33181;49.246;7.372;2023-05-07T01:05:20;7.60;;;4.83;;
47429;SDS011;33181;49.246;7.372;2023-05-07T01:07:48;6.77;;;4.90;;
47429;SDS011;33181;49.246;7.372;2023-05-07T01:10:15;9.57;;;6.00;;
47429;SDS011;33181;49.246;7.372;2023-05-07T01:12:42;8.00;;;5.27;;
47429;SDS011;33181;49.246;7.372;2023-05-07T01:15:09;6.70;;;5.10;;
47429;SDS011;33181;49.246;7.372;2023-05-07T01:17:36;7.93;;;5.50;;
47429;SDS011;33181;49.246;7.372;2023-05-07T01:20:07;5.90;;;4.73;;
47429;SDS011;33181;49.246;7.372;2023-05-07T01:22:39;7.10;;;5.17;;
47429;SDS011;33181;49.246;7.372;2023-05-07T01:25:06;6.77;;;5.30;;
47429;SDS011;33181;49.246;7.372;2023-05-07T01:27:33;6.20;;;5.10;;
47429;SDS011;33181;49.246;7.372;2023-05-07T01:30:01;6.20;;;5.00;;
47429;SDS011;33181;49.246;7.372;2023-05-07T01:32:32;7.07;;;5.00;;
47429;SDS011;33181;49.246;7.372;2023-05-07T01:35:27;5.77;;;4.40;;
47429;SDS011;33181;49.246;7.372;2023-05-07T01:37:58;6.60;;;4.90;;
47429;SDS011;33181;49.246;7.372;2023-05-07T01:40:25;6.40;;;5.03;;
47429;SDS011;33181;49.246;7.372;2023-05-07T01:42:52;8.57;;;5.30;;
47429;SDS011;33181;49.246;7.372;2023-05-07T01:45:19;7.00;;;5.00;;
47429;SDS011;33181;49.246;7.372;2023-05-07T01:47:45;10.00;;;4.63;;
47429;SDS011;33181;49.246;7.372;2023-05-07T01:50:11;5.60;;;4.70;;
47429;SDS011;33181;49.246;7.372;2023-05-07T01:52:38;7.77;;;4.97;;
47429;SDS011;33181;49.246;7.372;2023-05-07T01:55:04;7.23;;;5.00;;
47429;SDS011;33181;49.246;7.372;2023-05-07T01:57:31;6.27;;;5.53;;
47429;SDS011;33181;49.246;7.372;2023-05-07T01:59:57;5.67;;;5.07;;
47429;SDS011;33181;49.246;7.372;2023-05-07T02:02:23;6.00;;;5.07;;
47429;SDS011;33181;49.246;7.372;2023-05-07T02:04:49;6.33;;;5.43;;
47429;SDS011;33181;49.246;7.372;2023-05-07T02:07:15;6.23;;;5.10;;
47429;SDS011;33181;49.246;7.372;2023-05-07T02:09:41;6.20;;;4.70;;
47429;SDS011;33181;49.246;7.372;2023-05-07T02:12:07;7.43;;;5.20;;
47429;SDS011;33181;49.246;7.372;2023-05-07T02:14:32;8.53;;;5.00;;
47429;SDS011;33181;49.246;7.372;2023-05-07T02:16:58;7.03;;;4.67;;
47429;SDS011;33181;49.246;7.372;2023-05-07T02:19:24;5.67;;;4.80;;
47429;SDS011;33181;49.246;7.372;2023-05-07T02:21:50;5.97;;;4.43;;
47429;SDS011;33181;49.246;7.372;2023-05-07T02:24:16;8.20;;;5.10;;
47429;SDS011;33181;49.246;7.372;2023-05-07T02:26:42;7.10;;;4.67;;
47429;SDS011;33181;49.246;7.372;2023-05-07T02:29:08;9.07;;;5.40;;
47429;SDS011;33181;49.246;7.372;2023-05-07T02:31:36;6.67;;;5.53;;
47429;SDS011;33181;49.246;7.372;2023-05-07T02:34:02;6.13;;;4.70;;
47429;SDS011;33181;49.246;7.372;2023-05-07T02:36:28;5.37;;;4.80;;
47429;SDS011;33181;49.246;7.372;2023-05-07T02:38:55;5.70;;;4.80;;
47429;SDS011;33181;49.246;7.372;2023-05-07T02:41:21;8.03;;;5.03;;
47429;SDS011;33181;49.246;7.372;2023-05-07T02:43:47;6.57;;;5.50;;
47429;SDS011;33181;49.246;7.372;2023-05-07T02:46:13;6.40;;;5.47;;
47429;SDS011;33181;49.246;7.372;2023-05-07T02:48:39;7.33;;;5.50;;
47429;SDS011;33181;49.246;7.372;2023-05-07T02:51:04;6.53;;;5.00;;
47429;SDS011;33181;49.246;7.372;2023-05-07T02:53:31;7.20;;;5.20;;
47429;SDS011;33181;49.246;7.372;2023-05-07T02:55:57;5.47;;;4.80;;
47429;SDS011;33181;49.246;7.372;2023-05-07T02:58:24;6.40;;;5.10;;
47429;SDS011;33181;49.246;7.372;2023-05-07T03:00:51;6.03;;;4.77;;
47429;SDS011;33181;49.246;7.372;2023-05-07T03:03:17;5.37;;;4.53;;
47429;SDS011;33181;49.246;7.372;2023-05-07T03:05:43;7.23;;;4.83;;
47429;SDS011;33181;49.246;7.372;2023-05-07T03:08:09;6.50;;;4.70;;
47429;SDS011;33181;49.246;7.372;2023-05-07T03:10:35;6.17;;;4.73;;
47429;SDS011;33181;49.246;7.372;2023-05-07T03:13:02;6.53;;;5.00;;
47429;SDS011;33181;49.246;7.372;2023-05-07T03:15:28;5.70;;;4.80;;
47429;SDS011;33181;49.246;7.372;2023-05-07T03:17:54;8.03;;;5.17;;
47429;SDS011;33181;49.246;7.372;2023-05-07T03:20:20;7.23;;;5.07;;
47429;SDS011;33181;49.246;7.372;2023-05-07T03:22:47;5.67;;;4.80;;
47429;SDS011;33181;49.246;7.372;2023-05-07T03:25:13;5.50;;;4.57;;
47429;SDS011;33181;49.246;7.372;2023-05-07T03:27:40;5.33;;;4.53;;
47429;SDS011;33181;49.246;7.372;2023-05-07T03:30:07;5.80;;;4.77;;
47429;SDS011;33181;49.246;7.372;2023-05-07T03:32:34;5.47;;;4.40;;
47429;SDS011;33181;49.246;7.372;2023-05-07T03:35:00;5.13;;;4.60;;
47429;SDS011;33181;49.246;7.372;2023-05-07T03:37:27;5.03;;;4.53;;
47429;SDS011;33181;49.246;7.372;2023-05-07T03:39:53;5.33;;;4.70;;
47429;SDS011;33181;49.246;7.372;2023-05-07T03:42:19;5.20;;;4.70;;
47429;SDS011;33181;49.246;7.372;2023-05-07T03:44:45;7.27;;;5.07;;
47429;SDS011;33181;49.246;7.372;2023-05-07T03:47:11;7.63;;;5.30;;
47429;SDS011;33181;49.246;7.372;2023-05-07T03:49:38;7.47;;;5.33;;
47429;SDS011;33181;49.246;7.372;2023-05-07T03:52:05;8.17;;;4.63;;
47429;SDS011;33181;49.246;7.372;2023-05-07T03:54:31;5.77;;;5.03;;
47429;SDS011;33181;49.246;7.372;2023-05-07T03:56:57;6.60;;;4.80;;
47429;SDS011;33181;49.246;7.372;2023-05-07T03:59:24;6.10;;;4.60;;
47429;SDS011;33181;49.246;7.372;2023-05-07T04:01:49;5.77;;;4.90;;
47429;SDS011;33181;49.246;7.372;2023-05-07T04:04:15;8.40;;;5.47;;
47429;SDS011;33181;49.246;7.372;2023-05-07T04:06:41;5.60;;;5.00;;
47429;SDS011;33181;49.246;7.372;2023-05-07T04:09:07;6.53;;;4.80;;
47429;SDS011;33181;49.246;7.372;2023-05-07T04:11:34;6.90;;;5.03;;
47429;SDS011;33181;49.246;7.372;2023-05-07T04:14:01;7.37;;;5.63;;
47429;SDS011;33181;49.246;7.372;2023-05-07T04:16:26;5.87;;;5.17;;
47429;SDS011;33181;49.246;7.372;2023-05-07T04:18:52;8.90;;;5.43;;
47429;SDS011;33181;49.246;7.372;2023-05-07T04:21:19;5.60;;;4.93;;
47429;SDS011;33181;49.246;7.372;2023-05-07T04:23:46;9.37;;;5.40;;
47429;SDS011;33181;49.246;7.372;2023-05-07T04:26:13;5.80;;;4.40;;
47429;SDS011;33181;49.246;7.372;2023-05-07T04:28:40;8.70;;;5.30;;
47429;SDS011;33181;49.246;7.372;2023-05-07T04:31:07;6.10;;;5.07;;
47429;SDS011;33181;49.246;7.372;2023-05-07T04:33:36;6.90;;;4.83;;
47429;SDS011;33181;49.246;7.372;2023-05-07T04:36:02;5.87;;;4.70;;
47429;SDS011;33181;49.246;7.372;2023-05-07T04:38:32;5.83;;;5.00;;
47429;SDS011;33181;49.246;7.372;2023-05-07T04:41:04;5.50;;;4.83;;
47429;SDS011;33181;49.246;7.372;2023-05-07T04:43:31;8.90;;;5.10;;
47429;SDS011;33181;49.246;7.372;2023-05-07T04:45:57;8.20;;;5.53;;
47429;SDS011;33181;49.246;7.372;2023-05-07T04:48:23;5.10;;;4.40;;
47429;SDS011;33181;49.246;7.372;2023-05-07T04:50:49;5.47;;;4.60;;
47429;SDS011;33181;49.246;7.372;2023-05-07T04:53:16;6.50;;;4.87;;
47429;SDS011;33181;49.246;7.372;2023-05-07T04:55:45;5.10;;;4.60;;
47429;SDS011;33181;49.246;7.372;2023-05-07T04:58:11;5.10;;;4.60;;
47429;SDS011;33181;49.246;7.372;2023-05-07T05:00:37;5.83;;;4.63;;
47429;SDS011;33181;49.246;7.372;2023-05-07T05:03:04;5.60;;;4.80;;
47429;SDS011;33181;49.246;7.372;2023-05-07T05:05:32;5.00;;;4.50;;
47429;SDS011;33181;49.246;7.372;2023-05-07T05:07:58;5.43;;;4.77;;
47429;SDS011;33181;49.246;7.372;2023-05-07T05:10:23;4.93;;;4.43;;
47429;SDS011;33181;49.246;7.372;2023-05-07T05:12:50;5.87;;;5.00;;
47429;SDS011;33181;49.246;7.372;2023-05-07T05:15:16;7.70;;;4.83;;
47429;SDS011;33181;49.246;7.372;2023-05-07T05:17:42;7.07;;;4.60;;
47429;SDS011;33181;49.246;7.372;2023-05-07T05:20:08;7.30;;;4.57;;
47429;SDS011;33181;49.246;7.372;2023-05-07T05:22:35;6.67;;;4.83;;
47429;SDS011;33181;49.246;7.372;2023-05-07T05:25:02;5.50;;;4.70;;
47429;SDS011;33181;49.246;7.372;2023-05-07T05:27:28;7.80;;;5.10;;
47429;SDS011;33181;49.246;7.372;2023-05-07T05:29:54;7.83;;;5.20;;
47429;SDS011;33181;49.246;7.372;2023-05-07T05:32:20;9.40;;;5.23;;
47429;SDS011;33181;49.246;7.372;2023-05-07T05:34:47;6.10;;;5.10;;
47429;SDS011;33181;49.246;7.372;2023-05-07T05:37:13;5.70;;;5.10;;
47429;SDS011;33181;49.246;7.372;2023-05-07T05:39:39;9.93;;;5.10;;
47429;SDS011;33181;49.246;7.372;2023-05-07T05:42:06;6.67;;;5.40;;
47429;SDS011;33181;49.246;7.372;2023-05-07T05:44:32;5.93;;;5.33;;
47429;SDS011;33181;49.246;7.372;2023-05-07T05:46:58;7.07;;;5.70;;
47429;SDS011;33181;49.246;7.372;2023-05-07T05:49:25;6.03;;;5.27;;
47429;SDS011;33181;49.246;7.372;2023-05-07T05:51:51;7.90;;;5.17;;
47429;SDS011;33181;49.246;7.372;2023-05-07T05:54:17;6.77;;;5.27;;
47429;SDS011;33181;49.246;7.372;2023-05-07T05:56:44;8.10;;;5.47;;
47429;SDS011;33181;49.246;7.372;2023-05-07T05:59:10;5.60;;;4.93;;
47429;SDS011;33181;49.246;7.372;2023-05-07T06:01:37;5.80;;;4.80;;
47429;SDS011;33181;49.246;7.372;2023-05-07T06:04:03;5.90;;;5.30;;
47429;SDS011;33181;49.246;7.372;2023-05-07T06:06:30;6.37;;;4.90;;
47429;SDS011;33181;49.246;7.372;2023-05-07T06:08:56;6.77;;;5.20;;
47429;SDS011;33181;49.246;7.372;2023-05-07T06:11:23;8.13;;;5.50;;
47429;SDS011;33181;49.246;7.372;2023-05-07T06:13:50;6.97;;;5.60;;
47429;SDS011;33181;49.246;7.372;2023-05-07T06:16:18;6.07;;;5.30;;
47429;SDS011;33181;49.246;7.372;2023-05-07T06:18:45;7.30;;;4.93;;
47429;SDS011;33181;49.246;7.372;2023-05-07T06:21:11;6.53;;;5.03;;
47429;SDS011;33181;49.246;7.372;2023-05-07T06:23:38;6.50;;;5.80;;
47429;SDS011;33181;49.246;7.372;2023-05-07T06:26:06;6.80;;;5.17;;
47429;SDS011;33181;49.246;7.372;2023-05-07T06:28:32;7.73;;;5.20;;
47429;SDS011;33181;49.246;7.372;2023-05-07T06:31:22;8.23;;;5.40;;
47429;SDS011;33181;49.246;7.372;2023-05-07T06:33:48;8.27;;;5.20;;
47429;SDS011;33181;49.246;7.372;2023-05-07T06:36:15;6.47;;;5.30;;
47429;SDS011;33181;49.246;7.372;2023-05-07T06:38:41;5.90;;;4.90;;
47429;SDS011;33181;49.246;7.372;2023-05-07T06:41:07;6.20;;;5.60;;
47429;SDS011;33181;49.246;7.372;2023-05-07T06:43:34;9.90;;;6.40;;
47429;SDS011;33181;49.246;7.372;2023-05-07T06:46:01;7.10;;;5.70;;
47429;SDS011;33181;49.246;7.372;2023-05-07T06:48:27;8.90;;;5.30;;
47429;SDS011;33181;49.246;7.372;2023-05-07T06:50:53;6.30;;;5.33;;
47429;SDS011;33181;49.246;7.372;2023-05-07T06:53:20;7.57;;;4.97;;
47429;SDS011;33181;49.246;7.372;2023-05-07T06:55:46;6.73;;;4.80;;
47429;SDS011;33181;49.246;7.372;2023-05-07T06:58:12;6.77;;;4.80;;
47429;SDS011;33181;49.246;7.372;2023-05-07T07:00:39;6.57;;;5.40;;
47429;SDS011;33181;49.246;7.372;2023-05-07T07:03:05;6.40;;;5.30;;
47429;SDS011;33181;49.246;7.372;2023-05-07T07:05:33;6.17;;;5.00;;
47429;SDS011;33181;49.246;7.372;2023-05-07T07:08:04;6.03;;;5.33;;
47429;SDS011;33181;49.246;7.372;2023-05-07T07:10:30;6.70;;;5.20;;
47429;SDS011;33181;49.246;7.372;2023-05-07T07:12:57;7.70;;;5.67;;
47429;SDS011;33181;49.246;7.372;2023-05-07T07:15:26;6.53;;;4.60;;
47429;SDS011;33181;49.246;7.372;2023-05-07T07:17:54;5.70;;;4.57;;
47429;SDS011;33181;49.246;7.372;2023-05-07T07:20:23;7.40;;;4.50;;
47429;SDS011;33181;49.246;7.372;2023-05-07T07:22:49;6.23;;;4.47;;
47429;SDS011;33181;49.246;7.372;2023-05-07T07:25:15;5.00;;;4.50;;
47429;SDS011;33181;49.246;7.372;2023-05-07T07:27:41;6.33;;;3.90;;
47429;SDS011;33181;49.246;7.372;2023-05-07T07:30:07;5.30;;;4.17;;
47429;SDS011;33181;49.246;7.372;2023-05-07T07:32:34;4.67;;;4.17;;
47429;SDS011;33181;49.246;7.372;2023-05-07T07:35:00;5.90;;;3.70;;
47429;SDS011;33181;49.246;7.372;2023-05-07T07:37:26;6.23;;;4.60;;
47429;SDS011;33181;49.246;7.372;2023-05-07T07:39:52;5.40;;;4.13;;
47429;SDS011;33181;49.246;7.372;2023-05-07T07:42:18;5.00;;;3.80;;
47429;SDS011;33181;49.246;7.372;2023-05-07T07:44:44;4.80;;;3.90;;
47429;SDS011;33181;49.246;7.372;2023-05-07T07:47:10;5.23;;;4.10;;
47429;SDS011;33181;49.246;7.372;2023-05-07T07:49:36;7.93;;;4.03;;
47429;SDS011;33181;49.246;7.372;2023-05-07T07:52:01;5.50;;;4.00;;
47429;SDS011;33181;49.246;7.372;2023-05-07T07:54:28;4.87;;;4.30;;
47429;SDS011;33181;49.246;7.372;2023-05-07T07:56:54;4.10;;;3.63;;
47429;SDS011;33181;49.246;7.372;2023-05-07T07:59:20;5.63;;;3.80;;
47429;SDS011;33181;49.246;7.372;2023-05-07T08:01:46;5.43;;;4.07;;
47429;SDS011;33181;49.246;7.372;2023-05-07T08:04:15;5.77;;;3.70;;
47429;SDS011;33181;49.246;7.372;2023-05-07T08:06:41;5.83;;;4.07;;
47429;SDS011;33181;49.246;7.372;2023-05-07T08:09:07;4.13;;;3.70;;
47429;SDS011;33181;49.246;7.372;2023-05-07T08:11:33;4.20;;;3.50;;
47429;SDS011;33181;49.246;7.372;2023-05-07T08:13:59;5.20;;;3.67;;
47429;SDS011;33181;49.246;7.372;2023-05-07T08:16:25;4.20;;;3.80;;
47429;SDS011;33181;49.246;7.372;2023-05-07T08:18:54;5.03;;;4.03;;
47429;SDS011;33181;49.246;7.372;2023-05-07T08:21:20;4.40;;;3.40;;
47429;SDS011;33181;49.246;7.372;2023-05-07T08:23:51;4.50;;;3.60;;
47429;SDS011;33181;49.246;7.372;2023-05-07T08:26:17;4.20;;;3.43;;
47429;SDS011;33181;49.246;7.372;2023-05-07T08:28:43;4.20;;;3.80;;
47429;SDS011;33181;49.246;7.372;2023-05-07T08:31:09;4.80;;;3.60;;
47429;SDS011;33181;49.246;7.372;2023-05-07T08:33:35;4.50;;;3.60;;
47429;SDS011;33181;49.246;7.372;2023-05-07T08:36:03;6.43;;;3.80;;
47429;SDS011;33181;49.246;7.372;2023-05-07T08:38:33;4.50;;;3.57;;
47429;SDS011;33181;49.246;7.372;2023-05-07T08:41:02;4.20;;;3.70;;
47429;SDS011;33181;49.246;7.372;2023-05-07T08:43:28;4.83;;;3.57;;
47429;SDS011;33181;49.246;7.372;2023-05-07T08:45:58;5.27;;;4.20;;
47429;SDS011;33181;49.246;7.372;2023-05-07T08:48:27;4.37;;;3.97;;
47429;SDS011;33181;49.246;7.372;2023-05-07T08:50:57;6.33;;;4.23;;
47429;SDS011;33181;49.246;7.372;2023-05-07T08:53:24;4.20;;;3.67;;
47429;SDS011;33181;49.246;7.372;2023-05-07T08:55:50;5.70;;;4.10;;
47429;SDS011;33181;49.246;7.372;2023-05-07T08:58:17;4.33;;;3.30;;
47429;SDS011;33181;49.246;7.372;2023-05-07T09:00:43;5.63;;;3.80;;
47429;SDS011;33181;49.246;7.372;2023-05-07T09:03:09;5.50;;;4.10;;
47429;SDS011;33181;49.246;7.372;2023-05-07T09:05:39;4.70;;;4.03;;
47429;SDS011;33181;49.246;7.372;2023-05-07T09:08:06;4.50;;;3.90;;
47429;SDS011;33181;49.246;7.372;2023-05-07T09:10:33;6.13;;;4.20;;
47429;SDS011;33181;49.246;7.372;2023-05-07T09:12:59;4.70;;;4.07;;
47429;SDS011;33181;49.246;7.372;2023-05-07T09:15:25;4.63;;;4.03;;
47429;SDS011;33181;49.246;7.372;2023-05-07T09:17:53;4.90;;;4.13;;
47429;SDS011;33181;49.246;7.372;2023-05-07T09:20:19;5.33;;;3.80;;
47429;SDS011;33181;49.246;7.372;2023-05-07T09:22:48;6.40;;;5.70;;
47429;SDS011;33181;49.246;7.372;2023-05-07T09:25:16;4.80;;;3.90;;
47429;SDS011;33181;49.246;7.372;2023-05-07T09:27:54;8.67;;;7.80;;
47429;SDS011;33181;49.246;7.372;2023-05-07T09:30:20;6.63;;;5.10;;
47429;SDS011;33181;49.246;7.372;2023-05-07T09:32:46;4.67;;;3.60;;
47429;SDS011;33181;49.246;7.372;2023-05-07T09:35:15;6.03;;;4.87;;
47429;SDS011;33181;49.246;7.372;2023-05-07T09:37:42;4.13;;;3.50;;
47429;SDS011;33181;49.246;7.372;2023-05-07T09:40:08;7.40;;;4.20;;
47429;SDS011;33181;49.246;7.372;2023-05-07T09:42:48;4.40;;;3.87;;
47429;SDS011;33181;49.246;7.372;2023-05-07T09:45:15;4.93;;;3.80;;
47429;SDS011;33181;49.246;7.372;2023-05-07T09:47:46;4.30;;;3.40;;
47429;SDS011;33181;49.246;7.372;2023-05-07T09:50:15;6.27;;;4.97;;
47429;SDS011;33181;49.246;7.372;2023-05-07T09:52:44;5.40;;;4.23;;
47429;SDS011;33181;49.246;7.372;2023-05-07T09:55:10;12.23;;;7.23;;
47429;SDS011;33181;49.246;7.372;2023-05-07T09:57:37;4.60;;;4.20;;
47429;SDS011;33181;49.246;7.372;2023-05-07T10:00:05;5.27;;;4.50;;
47429;SDS011;33181;49.246;7.372;2023-05-07T10:02:35;7.20;;;3.80;;
47429;SDS011;33181;49.246;7.372;2023-05-07T10:05:03;5.47;;;3.70;;
47429;SDS011;33181;49.246;7.372;2023-05-07T10:07:29;6.57;;;3.93;;
47429;SDS011;33181;49.246;7.372;2023-05-07T10:09:55;5.30;;;3.40;;
47429;SDS011;33181;49.246;7.372;2023-05-07T10:12:22;4.53;;;3.80;;
47429;SDS011;33181;49.246;7.372;2023-05-07T10:14:49;4.53;;;3.43;;
47429;SDS011;33181;49.246;7.372;2023-05-07T10:17:17;3.33;;;3.00;;
47429;SDS011;33181;49.246;7.372;2023-05-07T10:19:47;5.43;;;3.40;;
47429;SDS011;33181;49.246;7.372;2023-05-07T10:22:13;5.37;;;3.40;;
47429;SDS011;33181;49.246;7.372;2023-05-07T10:24:41;4.53;;;3.80;;
47429;SDS011;33181;49.246;7.372;2023-05-07T10:27:10;4.03;;;3.60;;
47429;SDS011;33181;49.246;7.372;2023-05-07T10:29:49;3.97;;;3.63;;
47429;SDS011;33181;49.246;7.372;2023-05-07T10:32:40;4.40;;;3.90;;
47429;SDS011;33181;49.246;7.372;2023-05-07T10:35:17;4.10;;;3.27;;
47429;SDS011;33181;49.246;7.372;2023-05-07T10:37:51;4.20;;;3.50;;
47429;SDS011;33181;49.246;7.372;2023-05-07T10:40:17;4.30;;;3.70;;
47429;SDS011;33181;49.246;7.372;2023-05-07T10:42:55;4.13;;;3.37;;
47429;SDS011;33181;49.246;7.372;2023-05-07T10:45:25;3.80;;;3.00;;
47429;SDS011;33181;49.246;7.372;2023-05-07T10:48:05;3.60;;;3.30;;
47429;SDS011;33181;49.246;7.372;2023-05-07T10:50:31;4.03;;;3.37;;
47429;SDS011;33181;49.246;7.372;2023-05-07T10:53:19;4.10;;;3.40;;
47429;SDS011;33181;49.246;7.372;2023-05-07T10:58:43;3.40;;;2.80;;
47429;SDS011;33181;49.246;7.372;2023-05-07T11:01:09;6.03;;;3.50;;
47429;SDS011;33181;49.246;7.372;2023-05-07T11:03:37;4.77;;;3.00;;
47429;SDS011;33181;49.246;7.372;2023-05-07T11:07:08;4.60;;;3.10;;
47429;SDS011;33181;49.246;7.372;2023-05-07T11:12:16;3.37;;;3.07;;
47429;SDS011;33181;49.246;7.372;2023-05-07T11:15:04;3.47;;;3.17;;
47429;SDS011;33181;49.246;7.372;2023-05-07T11:17:31;3.93;;;3.20;;
47429;SDS011;33181;49.246;7.372;2023-05-07T11:19:59;4.87;;;3.20;;
47429;SDS011;33181;49.246;7.372;2023-05-07T11:24:56;4.50;;;3.30;;
47429;SDS011;33181;49.246;7.372;2023-05-07T11:27:28;9.40;;;3.73;;
47429;SDS011;33181;49.246;7.372;2023-05-07T11:29:55;4.33;;;3.27;;
47429;SDS011;33181;49.246;7.372;2023-05-07T11:32:31;4.47;;;3.83;;
47429;SDS011;33181;49.246;7.372;2023-05-07T11:34:58;4.63;;;3.67;;
47429;SDS011;33181;49.246;7.372;2023-05-07T11:37:25;3.90;;;3.23;;
47429;SDS011;33181;49.246;7.372;2023-05-07T11:40:07;5.00;;;3.70;;
47429;SDS011;33181;49.246;7.372;2023-05-07T11:42:36;4.13;;;3.40;;
47429;SDS011;33181;49.246;7.372;2023-05-07T11:45:04;5.33;;;3.47;;
47429;SDS011;33181;49.246;7.372;2023-05-07T11:47:32;4.10;;;3.37;;
47429;SDS011;33181;49.246;7.372;2023-05-07T11:50:02;4.23;;;3.10;;
47429;SDS011;33181;49.246;7.372;2023-05-07T11:52:31;3.77;;;3.20;;
47429;SDS011;33181;49.246;7.372;2023-05-07T11:54:58;6.77;;;3.37;;
47429;SDS011;33181;49.246;7.372;2023-05-07T11:57:29;5.57;;;3.33;;
47429;SDS011;33181;49.246;7.372;2023-05-07T12:02:22;4.60;;;3.30;;
47429;SDS011;33181;49.246;7.372;2023-05-07T12:04:50;3.70;;;3.30;;
47429;SDS011;33181;49.246;7.372;2023-05-07T12:07:17;4.10;;;3.70;;
47429;SDS011;33181;49.246;7.372;2023-05-07T12:09:44;4.80;;;3.47;;
47429;SDS011;33181;49.246;7.372;2023-05-07T12:12:11;3.73;;;3.33;;
47429;SDS011;33181;49.246;7.372;2023-05-07T12:14:42;5.70;;;3.50;;
47429;SDS011;33181;49.246;7.372;2023-05-07T12:17:13;4.13;;;3.60;;
47429;SDS011;33181;49.246;7.372;2023-05-07T12:19:40;6.80;;;3.90;;
47429;SDS011;33181;49.246;7.372;2023-05-07T12:22:08;4.50;;;3.50;;
47429;SDS011;33181;49.246;7.372;2023-05-07T12:24:50;4.83;;;3.50;;
47429;SDS011;33181;49.246;7.372;2023-05-07T12:27:23;4.20;;;3.80;;
47429;SDS011;33181;49.246;7.372;2023-05-07T12:29:49;4.20;;;3.70;;
47429;SDS011;33181;49.246;7.372;2023-05-07T12:32:16;15.17;;;4.10;;
47429;SDS011;33181;49.246;7.372;2023-05-07T12:34:43;4.40;;;3.33;;
47429;SDS011;33181;49.246;7.372;2023-05-07T12:37:10;6.27;;;3.70;;
47429;SDS011;33181;49.246;7.372;2023-05-07T12:39:36;4.73;;;3.50;;
47429;SDS011;33181;49.246;7.372;2023-05-07T12:42:02;5.00;;;3.70;;
47429;SDS011;33181;49.246;7.372;2023-05-07T12:44:31;5.47;;;4.10;;
47429;SDS011;33181;49.246;7.372;2023-05-07T12:47:02;6.43;;;4.53;;
47429;SDS011;33181;49.246;7.372;2023-05-07T12:49:29;5.37;;;4.20;;
47429;SDS011;33181;49.246;7.372;2023-05-07T12:51:56;4.63;;;4.10;;
47429;SDS011;33181;49.246;7.372;2023-05-07T12:54:28;7.20;;;4.57;;
47429;SDS011;33181;49.246;7.372;2023-05-07T12:57:06;14.63;;;4.60;;
47429;SDS011;33181;49.246;7.372;2023-05-07T12:59:36;8.60;;;4.30;;
47429;SDS011;33181;49.246;7.372;2023-05-07T13:02:04;6.43;;;4.50;;
47429;SDS011;33181;49.246;7.372;2023-05-07T13:04:31;8.20;;;5.40;;
47429;SDS011;33181;49.246;7.372;2023-05-07T13:06:58;8.53;;;4.87;;
47429;SDS011;33181;49.246;7.372;2023-05-07T13:09:25;5.10;;;4.60;;
47429;SDS011;33181;49.246;7.372;2023-05-07T13:11:57;6.33;;;5.03;;
47429;SDS011;33181;49.246;7.372;2023-05-07T13:14:26;10.00;;;4.93;;
47429;SDS011;33181;49.246;7.372;2023-05-07T13:16:52;6.10;;;5.10;;
47429;SDS011;33181;49.246;7.372;2023-05-07T13:19:18;6.60;;;5.43;;
47429;SDS011;33181;49.246;7.372;2023-05-07T13:21:43;5.87;;;5.13;;
47429;SDS011;33181;49.246;7.372;2023-05-07T13:24:09;5.60;;;4.80;;
47429;SDS011;33181;49.246;7.372;2023-05-07T13:26:35;8.00;;;6.17;;
47429;SDS011;33181;49.246;7.372;2023-05-07T13:29:01;6.97;;;5.23;;
47429;SDS011;33181;49.246;7.372;2023-05-07T13:31:27;6.00;;;5.40;;
47429;SDS011;33181;49.246;7.372;2023-05-07T13:33:53;10.23;;;5.83;;
47429;SDS011;33181;49.246;7.372;2023-05-07T13:36:21;6.20;;;5.57;;
47429;SDS011;33181;49.246;7.372;2023-05-07T13:38:46;7.07;;;6.03;;
47429;SDS011;33181;49.246;7.372;2023-05-07T13:41:12;7.57;;;5.77;;
47429;SDS011;33181;49.246;7.372;2023-05-07T13:43:39;6.77;;;5.73;;
47429;SDS011;33181;49.246;7.372;2023-05-07T13:46:05;7.13;;;6.10;;
47429;SDS011;33181;49.246;7.372;2023-05-07T13:48:31;6.57;;;5.90;;
47429;SDS011;33181;49.246;7.372;2023-05-07T13:50:57;6.60;;;5.60;;
47429;SDS011;33181;49.246;7.372;2023-05-07T13:53:22;7.07;;;5.73;;
47429;SDS011;33181;49.246;7.372;2023-05-07T13:55:48;10.90;;;6.00;;
47429;SDS011;33181;49.246;7.372;2023-05-07T13:58:14;8.03;;;6.07;;
47429;SDS011;33181;49.246;7.372;2023-05-07T14:00:40;10.43;;;6.43;;
47429;SDS011;33181;49.246;7.372;2023-05-07T14:03:05;8.87;;;6.30;;
47429;SDS011;33181;49.246;7.372;2023-05-07T14:05:31;7.77;;;6.60;;
47429;SDS011;33181;49.246;7.372;2023-05-07T14:07:57;8.73;;;6.50;;
47429;SDS011;33181;49.246;7.372;2023-05-07T14:10:23;9.47;;;7.30;;
47429;SDS011;33181;49.246;7.372;2023-05-07T14:12:49;8.63;;;6.30;;
47429;SDS011;33181;49.246;7.372;2023-05-07T14:15:15;8.20;;;6.70;;
47429;SDS011;33181;49.246;7.372;2023-05-07T14:17:41;7.30;;;5.80;;
47429;SDS011;33181;49.246;7.372;2023-05-07T14:20:08;8.13;;;6.57;;
47429;SDS011;33181;49.246;7.372;2023-05-07T14:22:40;6.47;;;5.77;;
47429;SDS011;33181;49.246;7.372;2023-05-07T14:25:13;9.60;;;7.30;;
47429;SDS011;33181;49.246;7.372;2023-05-07T14:27:40;7.30;;;6.20;;
47429;SDS011;33181;49.246;7.372;2023-05-07T14:30:06;8.87;;;6.43;;
47429;SDS011;33181;49.246;7.372;2023-05-07T14:32:33;7.73;;;6.30;;
47429;SDS011;33181;49.246;7.372;2023-05-07T14:34:59;6.40;;;5.80;;
47429;SDS011;33181;49.246;7.372;2023-05-07T14:37:25;9.33;;;7.00;;
47429;SDS011;33181;49.246;7.372;2023-05-07T14:39:51;8.20;;;6.93;;
47429;SDS011;33181;49.246;7.372;2023-05-07T14:42:17;6.27;;;5.63;;
47429;SDS011;33181;49.246;7.372;2023-05-07T14:44:43;5.80;;;4.97;;
47429;SDS011;33181;49.246;7.372;2023-05-07T14:47:10;6.80;;;5.57;;
47429;SDS011;33181;49.246;7.372;2023-05-07T14:49:36;9.20;;;6.40;;
47429;SDS011;33181;49.246;7.372;2023-05-07T14:52:01;7.73;;;5.60;;
47429;SDS011;33181;49.246;7.372;2023-05-07T14:54:29;7.70;;;6.47;;
47429;SDS011;33181;49.246;7.372;2023-05-07T14:56:55;6.03;;;5.43;;
47429;SDS011;33181;49.246;7.372;2023-05-07T14:59:20;9.80;;;5.60;;
47429;SDS011;33181;49.246;7.372;2023-05-07T15:01:47;15.03;;;5.27;;